Time;durP1;ratioP1;P1;durP2;ratioP2;P2;SDS_P1;SDS_P2;PMS_P1;PMS_P2;Temp;Humidity;BMP_temperature;BMP_pressure;BME280_temperature;BME280_humidity;BME280_pressure;Samples;Min_cycle;Max_cycle;Signal;HPM_P1;HPM_P2
2022/01/20 00:03:22;;;;;;;5.22;2.95;;;24.00;31.40;;;;;;5023850;28;20052;-41
2022/01/20 00:27:31;;;;;;;4.65;2.67;;;23.80;31.40;;;;;;5024936;28;20040;-42
2022/01/20 00:32:33;;;;;;;4.63;2.90;;;23.80;31.40;;;;;;5020168;28;20033;-41
2022/01/20 00:37:28;;;;;;;4.38;2.88;;;23.80;31.40;;;;;;5024264;28;20126;-42
2022/01/20 00:39:54;;;;;;;4.50;3.13;;;23.80;31.40;;;;;;5024911;28;20033;-43
2022/01/20 00:42:21;;;;;;;3.70;2.58;;;23.80;31.40;;;;;;5024955;28;20060;-40
2022/01/20 00:44:47;;;;;;;3.95;2.70;;;23.70;31.40;;;;;;5025110;28;20034;-42
2022/01/20 00:47:15;;;;;;;4.40;2.85;;;23.70;31.40;;;;;;5024448;28;20601;-42
2022/01/20 00:49:41;;;;;;;4.53;3.00;;;23.70;31.40;;;;;;5025045;28;20029;-41
2022/01/20 00:52:07;;;;;;;5.03;3.38;;;23.70;31.40;;;;;;5024667;28;20025;-42
2022/01/20 00:54:34;;;;;;;3.90;2.58;;;23.70;31.40;;;;;;5025049;28;20034;-41
2022/01/20 00:57:00;;;;;;;4.38;2.85;;;23.70;31.40;;;;;;5024295;28;20026;-41
2022/01/20 00:59:27;;;;;;;4.32;2.65;;;23.60;31.40;;;;;;5020519;28;20049;-41
2022/01/20 01:01:54;;;;;;;4.13;2.70;;;23.60;31.40;;;;;;5022741;28;20040;-42
2022/01/20 01:04:20;;;;;;;4.18;2.60;;;23.60;31.40;;;;;;5017572;28;20025;-43
2022/01/20 01:07:24;;;;;;;4.35;2.88;;;23.60;31.40;;;;;;5024324;28;20412;-41
2022/01/20 01:09:49;;;;;;;3.63;2.25;;;23.60;31.40;;;;;;5023388;28;20022;-41
2022/01/20 01:12:23;;;;;;;3.90;2.63;;;23.60;31.40;;;;;;5024553;28;20033;-41
2022/01/20 01:14:52;;;;;;;4.32;2.95;;;23.60;31.40;;;;;;5024145;28;20025;-41
2022/01/20 01:20:10;;;;;;;4.82;2.50;;;23.50;31.40;;;;;;5023824;28;20041;-42
2022/01/20 01:22:36;;;;;;;4.13;2.40;;;23.50;31.50;;;;;;5024448;28;20084;-42
2022/01/20 01:25:02;;;;;;;3.78;2.40;;;23.50;31.50;;;;;;5024053;28;20670;-41
2022/01/20 01:27:32;;;;;;;4.53;2.60;;;23.50;31.40;;;;;;5023915;28;20033;-42
2022/01/20 01:30:08;;;;;;;3.60;2.30;;;23.50;31.50;;;;;;5024422;28;20022;-42
2022/01/20 01:32:45;;;;;;;4.05;2.58;;;23.50;31.50;;;;;;5024202;28;20029;-41
2022/01/20 01:35:12;;;;;;;3.67;2.25;;;23.50;31.50;;;;;;5023846;28;20022;-42
2022/01/20 01:40:10;;;;;;;4.53;2.55;;;23.50;31.50;;;;;;5024165;28;20021;-42
2022/01/20 01:42:48;;;;;;;3.65;2.10;;;23.40;31.50;;;;;;5024127;28;20026;-40
2022/01/20 01:45:18;;;;;;;4.00;2.55;;;23.40;31.50;;;;;;5023866;28;20034;-41
2022/01/20 01:47:45;;;;;;;4.05;2.72;;;23.40;31.50;;;;;;5023645;28;20029;-42
2022/01/20 01:50:11;;;;;;;3.70;2.60;;;23.40;31.50;;;;;;5023449;28;20026;-41
2022/01/20 01:52:37;;;;;;;4.03;2.50;;;23.40;31.50;;;;;;5023518;28;20155;-42
2022/01/20 01:55:04;;;;;;;3.58;2.28;;;23.40;31.50;;;;;;5024177;28;20025;-41
2022/01/20 01:57:30;;;;;;;3.80;2.30;;;23.40;31.60;;;;;;5023334;28;20032;-42
2022/01/20 01:59:56;;;;;;;3.58;2.58;;;23.40;32.20;;;;;;5024065;28;20504;-42
2022/01/20 02:02:22;;;;;;;4.00;1.90;;;23.30;31.60;;;;;;5023696;28;20034;-41
2022/01/20 02:04:49;;;;;;;3.13;1.90;;;23.30;31.50;;;;;;5023804;28;20021;-42
2022/01/20 02:08:17;;;;;;;4.05;2.42;;;23.30;31.50;;;;;;5024133;28;20025;-43
2022/01/20 02:20:52;;;;;;;3.20;1.77;;;23.30;31.60;;;;;;5027765;28;20034;-42
2022/01/20 02:23:18;;;;;;;3.08;1.92;;;23.20;31.50;;;;;;5026498;28;20080;-41
2022/01/20 02:25:45;;;;;;;4.32;2.50;;;23.20;31.50;;;;;;5028144;28;20508;-41
2022/01/20 02:28:12;;;;;;;3.72;2.00;;;23.20;31.40;;;;;;5026028;28;20370;-41
2022/01/20 02:30:43;;;;;;;3.47;2.05;;;23.20;31.50;;;;;;5027997;28;20608;-41
2022/01/20 02:33:11;;;;;;;3.47;2.10;;;23.20;31.40;;;;;;5027817;28;20033;-40
2022/01/20 02:35:46;;;;;;;2.75;1.70;;;23.20;31.40;;;;;;5027391;28;20049;-40
2022/01/20 02:38:29;;;;;;;3.13;1.80;;;23.20;31.40;;;;;;5026808;28;20029;-41
2022/01/20 02:46:23;;;;;;;3.58;2.00;;;23.20;31.30;;;;;;5027130;28;20417;-42
2022/01/20 02:48:49;;;;;;;3.95;2.13;;;23.20;31.30;;;;;;5026158;28;20025;-42
2022/01/20 02:51:15;;;;;;;3.50;2.10;;;23.10;31.40;;;;;;5027739;28;20048;-42
2022/01/20 02:53:41;;;;;;;3.92;2.38;;;23.10;31.40;;;;;;5027632;28;20629;-42
2022/01/20 02:56:07;;;;;;;3.35;1.83;;;23.10;31.40;;;;;;5025636;28;20057;-42
2022/01/20 02:58:33;;;;;;;2.80;1.70;;;23.10;31.40;;;;;;5027178;28;20033;-42
2022/01/20 03:00:59;;;;;;;3.10;1.85;;;23.10;31.40;;;;;;5026930;28;20579;-41
2022/01/20 03:03:25;;;;;;;3.13;1.85;;;23.10;31.40;;;;;;5026798;28;20033;-40
2022/01/20 03:05:51;;;;;;;3.05;1.75;;;23.10;31.40;;;;;;5026574;28;20553;-41
2022/01/20 03:08:16;;;;;;;2.97;1.73;;;23.00;31.30;;;;;;5026603;28;20096;-39
2022/01/20 03:10:42;;;;;;;4.28;2.20;;;23.10;31.40;;;;;;5026798;28;20525;-42
2022/01/20 03:13:08;;;;;;;2.78;1.70;;;23.00;31.30;;;;;;5026713;28;20036;-41
2022/01/20 03:15:35;;;;;;;4.03;2.50;;;23.00;31.30;;;;;;5027233;28;20042;-41
2022/01/20 03:18:03;;;;;;;2.72;1.70;;;23.00;31.30;;;;;;5026265;28;20264;-41
2022/01/20 03:20:29;;;;;;;3.42;2.22;;;23.00;31.30;;;;;;5026561;28;20041;-42
2022/01/20 03:22:54;;;;;;;3.38;1.98;;;23.00;31.40;;;;;;5026514;28;20059;-42
2022/01/20 03:25:20;;;;;;;3.78;1.70;;;23.00;31.30;;;;;;5026665;28;20037;-42
2022/01/20 03:27:46;;;;;;;3.08;1.85;;;23.00;31.30;;;;;;5026140;28;20026;-41
2022/01/20 03:30:12;;;;;;;2.88;1.77;;;22.90;31.40;;;;;;5026092;28;20048;-42
2022/01/20 03:32:38;;;;;;;3.00;1.80;;;22.90;31.30;;;;;;5025605;28;20116;-42
2022/01/20 03:35:06;;;;;;;3.17;1.88;;;22.90;31.30;;;;;;5026524;28;20124;-42
2022/01/20 03:37:33;;;;;;;3.60;2.03;;;22.90;31.30;;;;;;5026293;28;20038;-41
2022/01/20 03:39:59;;;;;;;3.15;1.73;;;22.90;31.40;;;;;;5025898;28;20030;-42
2022/01/20 03:42:25;;;;;;;3.60;1.83;;;22.80;31.30;;;;;;5024940;28;20049;-42
2022/01/20 03:44:52;;;;;;;2.90;1.77;;;22.80;31.40;;;;;;5026338;28;20512;-42
2022/01/20 03:47:19;;;;;;;2.97;1.70;;;22.80;31.40;;;;;;5025632;28;20079;-42
2022/01/20 03:50:07;;;;;;;3.15;1.75;;;22.80;31.40;;;;;;5025309;28;20040;-41
2022/01/20 03:52:33;;;;;;;3.25;1.85;;;22.80;31.60;;;;;;5006449;28;20112;-42
2022/01/20 03:54:59;;;;;;;2.45;1.35;;;22.80;31.50;;;;;;5005909;28;20104;-42
2022/01/20 03:57:25;;;;;;;3.33;2.08;;;22.80;31.60;;;;;;5011437;28;20640;-41
2022/01/20 03:59:51;;;;;;;2.97;1.73;;;22.80;31.60;;;;;;5025850;28;20452;-42
2022/01/20 04:02:17;;;;;;;3.22;1.88;;;22.80;31.60;;;;;;5025507;28;20053;-42
2022/01/20 04:04:43;;;;;;;2.85;1.60;;;22.80;31.60;;;;;;5025700;28;20095;-41
2022/01/20 04:07:09;;;;;;;2.60;1.52;;;22.80;31.60;;;;;;5024955;28;20037;-41
2022/01/20 04:09:34;;;;;;;2.60;1.38;;;22.80;31.60;;;;;;5025285;28;20034;-42
2022/01/20 04:12:00;;;;;;;2.83;1.90;;;22.80;31.60;;;;;;5025451;28;20437;-42
2022/01/20 04:14:28;;;;;;;2.72;1.50;;;22.80;31.60;;;;;;5026104;28;20041;-42
2022/01/20 04:19:24;;;;;;;2.97;1.50;;;22.80;31.60;;;;;;5024869;28;20437;-42
2022/01/20 04:21:50;;;;;;;3.30;1.60;;;22.80;31.60;;;;;;5024329;28;20029;-41
2022/01/20 04:24:16;;;;;;;2.55;1.50;;;22.80;31.60;;;;;;5025250;28;20527;-42
2022/01/20 04:26:44;;;;;;;2.75;1.63;;;22.70;31.60;;;;;;5025393;28;20030;-41
2022/01/20 04:29:13;;;;;;;2.92;1.50;;;22.80;31.60;;;;;;5005128;28;20025;-42
2022/01/20 04:31:40;;;;;;;2.95;1.63;;;22.80;31.50;;;;;;5006331;28;20057;-42
2022/01/20 04:34:07;;;;;;;3.08;1.40;;;22.80;31.60;;;;;;5008852;28;20116;-42
2022/01/20 04:36:37;;;;;;;2.40;1.38;;;22.70;31.60;;;;;;5023906;28;20440;-42
2022/01/20 04:39:06;;;;;;;2.53;1.42;;;22.70;31.60;;;;;;5025070;28;20040;-41
2022/01/20 04:41:31;;;;;;;2.95;1.60;;;22.70;31.60;;;;;;5024981;28;20447;-41
2022/01/20 04:43:59;;;;;;;2.28;1.38;;;22.70;31.60;;;;;;5024159;28;20038;-41
2022/01/20 04:59:29;;;;;;;2.50;1.20;;;22.70;31.50;;;;;;5004809;28;20497;-41
2022/01/20 05:01:55;;;;;;;2.28;1.30;;;22.60;31.40;;;;;;5019133;28;20037;-41
2022/01/20 05:04:23;;;;;;;2.38;1.30;;;22.70;31.60;;;;;;5024822;28;20051;-42
2022/01/20 05:06:49;;;;;;;2.38;1.42;;;22.70;31.60;;;;;;5024128;28;20504;-42
2022/01/20 05:09:20;;;;;;;2.58;1.52;;;22.70;31.60;;;;;;5024484;28;20104;-40
2022/01/20 05:11:51;;;;;;;2.80;1.35;;;22.70;31.60;;;;;;5024088;28;20026;-42
2022/01/20 05:14:17;;;;;;;3.25;1.60;;;22.60;31.50;;;;;;5024193;28;20025;-41
2022/01/20 05:16:43;;;;;;;2.60;1.33;;;22.60;31.50;;;;;;5024072;28;20579;-40
2022/01/20 05:19:09;;;;;;;2.58;1.40;;;22.60;31.70;;;;;;5023505;28;20037;-40
2022/01/20 05:21:34;;;;;;;2.13;1.02;;;22.60;31.80;;;;;;5024967;28;20140;-41
2022/01/20 05:24:00;;;;;;;2.17;1.23;;;22.60;31.80;;;;;;5023677;28;20029;-42
2022/01/20 05:26:26;;;;;;;2.90;1.35;;;22.60;31.90;;;;;;5023664;28;20118;-41
2022/01/20 05:28:52;;;;;;;2.58;1.30;;;22.60;31.90;;;;;;5023806;28;20452;-42
2022/01/20 05:31:18;;;;;;;4.80;1.80;;;22.70;32.10;;;;;;5023709;28;20472;-40
2022/01/20 05:33:43;;;;;;;8.85;3.33;;;22.70;32.30;;;;;;5023917;28;20464;-40
2022/01/20 05:36:09;;;;;;;21.02;6.85;;;22.80;32.60;;;;;;5023251;28;20033;-41
2022/01/20 05:38:35;;;;;;;16.65;5.88;;;22.80;32.90;;;;;;5022303;28;20025;-40
2022/01/20 05:41:01;;;;;;;19.20;6.85;;;22.90;32.90;;;;;;5021904;28;20033;-42
2022/01/20 05:43:26;;;;;;;20.83;7.65;;;23.00;33.00;;;;;;5023192;28;20037;-41
2022/01/20 05:45:52;;;;;;;21.52;10.18;;;23.10;33.20;;;;;;5023347;28;20500;-42
2022/01/20 05:48:31;;;;;;;18.02;8.70;;;23.10;33.30;;;;;;5023344;28;20440;-41
2022/01/20 05:50:57;;;;;;;17.88;7.05;;;23.20;33.10;;;;;;5020976;28;20393;-41
2022/01/20 05:53:22;;;;;;;16.75;6.55;;;23.30;32.90;;;;;;5023210;28;20026;-42
2022/01/20 05:55:48;;;;;;;15.75;6.53;;;23.40;32.70;;;;;;5027517;28;20029;-40
2022/01/20 05:58:13;;;;;;;11.05;5.60;;;23.50;32.60;;;;;;5026501;28;20026;-40
2022/01/20 06:00:40;;;;;;;11.63;5.35;;;23.50;32.60;;;;;;5024183;28;20144;-41
2022/01/20 06:05:50;;;;;;;8.20;3.95;;;23.70;32.30;;;;;;5025005;28;20547;-43
2022/01/20 06:08:17;;;;;;;8.20;3.97;;;23.80;32.10;;;;;;5026541;28;20030;-42
2022/01/20 06:10:43;;;;;;;9.52;4.20;;;23.90;32.00;;;;;;5027321;28;20080;-42
2022/01/20 06:13:08;;;;;;;8.90;3.58;;;24.00;31.80;;;;;;5026868;28;20026;-42
2022/01/20 06:15:34;;;;;;;6.95;3.90;;;24.00;31.60;;;;;;5026564;28;20109;-41
2022/01/20 06:18:00;;;;;;;6.28;3.30;;;24.10;31.50;;;;;;5026588;28;20622;-42
2022/01/20 06:20:27;;;;;;;9.10;3.33;;;24.20;31.40;;;;;;5026388;28;20577;-43
2022/01/20 06:22:53;;;;;;;6.68;3.15;;;24.30;31.30;;;;;;5026129;28;20026;-42
2022/01/20 06:25:18;;;;;;;8.45;3.00;;;24.30;31.10;;;;;;5027494;28;20026;-41
2022/01/20 06:27:44;;;;;;;6.85;3.15;;;24.40;31.00;;;;;;5026379;28;20022;-41
2022/01/20 06:30:11;;;;;;;6.90;3.00;;;24.50;31.00;;;;;;5027217;28;20037;-41
2022/01/20 06:32:37;;;;;;;5.95;2.45;;;24.60;30.80;;;;;;5027718;28;20095;-42
2022/01/20 06:35:03;;;;;;;8.20;2.67;;;24.60;30.70;;;;;;5027249;28;20485;-40
2022/01/20 06:37:29;;;;;;;6.20;2.22;;;24.70;30.70;;;;;;5026662;28;20064;-42
2022/01/20 06:39:55;;;;;;;6.00;2.70;;;24.80;30.60;;;;;;5027505;28;20609;-42
2022/01/20 06:42:20;;;;;;;7.25;2.70;;;24.80;30.50;;;;;;5025918;28;20031;-42
2022/01/20 06:44:46;;;;;;;5.90;2.22;;;24.90;30.50;;;;;;5026959;28;20029;-41
2022/01/20 06:47:13;;;;;;;7.00;2.25;;;24.90;30.40;;;;;;5026207;28;20025;-43
2022/01/20 06:49:38;;;;;;;4.13;1.77;;;25.00;30.30;;;;;;5024228;28;20087;-42
2022/01/20 06:52:05;;;;;;;5.25;2.22;;;25.00;30.20;;;;;;5026296;28;20022;-41
2022/01/20 06:54:30;;;;;;;5.30;1.83;;;25.10;30.10;;;;;;5026684;28;20102;-43
2022/01/20 06:56:56;;;;;;;3.50;1.58;;;25.10;30.10;;;;;;5026926;28;20232;-42
2022/01/20 06:59:22;;;;;;;4.10;1.98;;;25.10;29.90;;;;;;5026816;28;20030;-41
2022/01/20 07:01:48;;;;;;;4.78;2.00;;;25.20;29.80;;;;;;5027327;28;20086;-42
2022/01/20 07:04:15;;;;;;;4.38;1.67;;;25.20;29.80;;;;;;5027216;28;20060;-41
2022/01/20 07:06:41;;;;;;;4.72;2.38;;;25.30;29.80;;;;;;5025225;28;20030;-41
2022/01/20 07:09:08;;;;;;;5.47;1.90;;;25.30;30.40;;;;;;5026934;28;20030;-41
2022/01/20 07:11:35;;;;;;;4.70;1.92;;;25.30;29.70;;;;;;5027062;28;20041;-43
2022/01/20 07:14:01;;;;;;;6.63;2.17;;;25.30;29.70;;;;;;5024273;28;20059;-41
2022/01/20 07:16:28;;;;;;;2.83;1.35;;;25.30;29.70;;;;;;5025934;28;20444;-42
2022/01/20 07:18:55;;;;;;;4.88;1.98;;;25.40;29.70;;;;;;5024642;28;20045;-41
2022/01/20 07:21:21;;;;;;;5.00;1.90;;;25.40;29.60;;;;;;5023618;28;20033;-42
2022/01/20 07:23:48;;;;;;;3.47;1.80;;;25.40;29.60;;;;;;5026295;28;20025;-42
2022/01/20 07:26:13;;;;;;;3.47;1.52;;;25.40;29.50;;;;;;5025286;28;20033;-42
2022/01/20 07:28:39;;;;;;;2.95;1.35;;;25.40;29.50;;;;;;5025429;28;20052;-42
2022/01/20 07:31:07;;;;;;;4.35;1.60;;;25.50;29.90;;;;;;5025764;28;20100;-41
2022/01/20 07:33:33;;;;;;;3.38;1.65;;;25.50;29.50;;;;;;5024538;28;20057;-42
2022/01/20 07:35:59;;;;;;;3.83;1.48;;;25.50;29.30;;;;;;5025299;28;20057;-42
2022/01/20 07:38:25;;;;;;;3.10;1.40;;;25.50;29.40;;;;;;5008597;28;20045;-42
2022/01/20 07:40:51;;;;;;;3.42;1.63;;;25.50;29.30;;;;;;5027350;28;20113;-43
2022/01/20 07:43:17;;;;;;;3.60;1.30;;;25.50;29.30;;;;;;5026364;28;20068;-42
2022/01/20 07:45:43;;;;;;;2.72;1.20;;;25.50;29.30;;;;;;5027518;28;20473;-42
2022/01/20 07:48:09;;;;;;;3.72;1.50;;;25.50;29.30;;;;;;5026622;28;20026;-42
2022/01/20 07:50:35;;;;;;;2.95;1.40;;;25.50;29.20;;;;;;5026955;28;20033;-42
2022/01/20 07:53:01;;;;;;;3.85;1.40;;;25.50;29.20;;;;;;5026409;28;20427;-42
2022/01/20 07:55:27;;;;;;;2.97;1.30;;;25.60;29.10;;;;;;5027142;28;20021;-41
2022/01/20 07:57:53;;;;;;;4.45;1.48;;;25.60;29.10;;;;;;5029459;28;20063;-41
2022/01/20 08:00:18;;;;;;;3.83;1.30;;;25.60;29.10;;;;;;5026529;28;20044;-42
2022/01/20 08:02:45;;;;;;;2.55;1.20;;;25.60;29.00;;;;;;5026564;28;20104;-42
2022/01/20 08:05:11;;;;;;;3.08;0.90;;;25.60;29.00;;;;;;5026232;28;20564;-41
2022/01/20 08:07:37;;;;;;;4.20;1.50;;;25.60;29.00;;;;;;5025684;28;20078;-41
2022/01/20 08:10:04;;;;;;;2.42;0.95;;;25.60;29.00;;;;;;5026539;28;20025;-41
2022/01/20 08:12:29;;;;;;;1.88;0.90;;;25.60;29.70;;;;;;5012769;28;22571;-43
2022/01/20 08:14:56;;;;;;;3.70;1.38;;;25.60;29.00;;;;;;5026478;28;20424;-42
2022/01/20 08:17:22;;;;;;;2.33;1.10;;;25.50;29.00;;;;;;5030373;28;20026;-42
2022/01/20 08:19:49;;;;;;;2.78;1.30;;;25.50;29.10;;;;;;5011692;28;20033;-43
2022/01/20 08:22:15;;;;;;;3.17;1.20;;;25.50;29.20;;;;;;5025858;28;20044;-42
2022/01/20 08:24:41;;;;;;;2.50;0.98;;;25.50;29.30;;;;;;5025458;28;20619;-41
2022/01/20 08:27:09;;;;;;;2.90;1.05;;;25.50;29.20;;;;;;5025597;28;20033;-42
2022/01/20 08:29:36;;;;;;;2.38;1.00;;;25.50;29.20;;;;;;5015889;28;20645;-42
2022/01/20 08:32:02;;;;;;;2.85;1.08;;;25.50;29.20;;;;;;5006029;28;20113;-43
2022/01/20 08:34:28;;;;;;;2.00;0.95;;;25.50;29.10;;;;;;5008349;28;20111;-43
2022/01/20 08:36:55;;;;;;;2.75;1.25;;;25.50;29.20;;;;;;5023549;28;20512;-42
2022/01/20 08:41:58;;;;;;;2.03;0.88;;;25.60;29.10;;;;;;5025158;28;20281;-40
2022/01/20 08:44:24;;;;;;;2.30;1.00;;;25.50;29.10;;;;;;5025283;28;20051;-43
2022/01/20 08:46:52;;;;;;;2.85;1.05;;;25.60;29.10;;;;;;5023697;28;20532;-42
2022/01/20 08:49:18;;;;;;;2.85;1.00;;;25.60;29.10;;;;;;5023433;28;20155;-43
2022/01/20 08:51:44;;;;;;;2.20;1.00;;;25.50;29.10;;;;;;5024204;28;20026;-42
2022/01/20 08:54:10;;;;;;;2.08;0.95;;;25.60;29.00;;;;;;5024868;28;20064;-41
2022/01/20 08:56:37;;;;;;;1.73;0.90;;;25.50;29.10;;;;;;5023670;28;20025;-43
2022/01/20 08:59:08;;;;;;;2.85;1.10;;;25.50;29.20;;;;;;5025104;28;20053;-42
2022/01/20 09:01:35;;;;;;;1.98;0.88;;;25.50;29.30;;;;;;5025085;28;20021;-42
2022/01/20 09:04:01;;;;;;;1.75;0.82;;;25.50;29.40;;;;;;5025116;28;20042;-43
2022/01/20 09:06:26;;;;;;;2.05;0.70;;;25.50;29.30;;;;;;5023013;28;20037;-41
2022/01/20 09:08:53;;;;;;;2.47;0.95;;;25.50;29.30;;;;;;5025130;28;20183;-43
2022/01/20 09:11:19;;;;;;;1.95;0.70;;;25.50;29.30;;;;;;5025038;28;20082;-42
2022/01/20 09:16:30;;;;;;;2.20;0.73;;;25.50;29.10;;;;;;5024819;28;20028;-40
2022/01/20 09:18:56;;;;;;;1.92;0.80;;;25.50;29.20;;;;;;5024312;28;20045;-41
2022/01/20 09:21:23;;;;;;;1.25;0.60;;;25.40;29.30;;;;;;5024156;28;20029;-42
2022/01/20 09:23:49;;;;;;;2.13;0.80;;;25.40;29.30;;;;;;5024650;28;20029;-42
2022/01/20 09:26:15;;;;;;;1.40;0.52;;;25.40;29.30;;;;;;5024210;28;20029;-41
2022/01/20 09:28:42;;;;;;;1.58;0.70;;;25.40;29.40;;;;;;5039564;28;20477;-42
2022/01/20 09:31:09;;;;;;;1.38;0.65;;;25.40;29.30;;;;;;5025081;28;20235;-42
2022/01/20 09:33:35;;;;;;;0.82;0.40;;;25.40;29.40;;;;;;5025143;28;20037;-42
2022/01/20 09:36:01;;;;;;;2.13;0.73;;;25.40;29.40;;;;;;5023509;28;20401;-42
2022/01/20 09:38:27;;;;;;;1.73;0.77;;;25.40;29.50;;;;;;5024737;28;20504;-42
2022/01/20 09:40:53;;;;;;;1.70;0.60;;;25.40;29.30;;;;;;5024293;28;20025;-41
2022/01/20 09:43:20;;;;;;;1.50;0.60;;;25.40;29.30;;;;;;5023845;28;20037;-42
2022/01/20 09:45:51;;;;;;;1.70;0.65;;;25.40;29.40;;;;;;5024441;28;20687;-42
2022/01/20 09:48:18;;;;;;;1.52;0.70;;;25.40;29.40;;;;;;5024169;28;20028;-41
2022/01/20 09:50:44;;;;;;;1.83;0.70;;;25.30;29.40;;;;;;5023671;28;20048;-42
2022/01/20 09:53:10;;;;;;;1.90;0.68;;;25.40;29.40;;;;;;5023697;28;20021;-43
2022/01/20 09:55:36;;;;;;;1.27;0.63;;;25.40;29.30;;;;;;5022818;28;20751;-41
2022/01/20 09:58:03;;;;;;;1.00;0.50;;;25.40;29.30;;;;;;5024300;28;20026;-42
2022/01/20 10:00:29;;;;;;;0.95;0.55;;;25.40;29.20;;;;;;5024258;28;20262;-42
2022/01/20 10:03:06;;;;;;;1.20;0.50;;;25.40;29.20;;;;;;5024395;28;20053;-42
2022/01/20 10:05:35;;;;;;;1.85;0.47;;;25.50;29.10;;;;;;5024207;28;20030;-41
2022/01/20 10:08:27;;;;;;;0.85;0.40;;;25.50;29.00;;;;;;5022886;28;20397;-42
2022/01/20 10:11:03;;;;;;;1.17;0.50;;;25.50;29.10;;;;;;5020339;28;20087;-42
2022/01/20 10:13:34;;;;;;;1.58;0.60;;;25.50;29.00;;;;;;5024241;28;20593;-40
2022/01/20 10:16:13;;;;;;;1.13;0.50;;;25.50;29.00;;;;;;5023477;28;20033;-42
2022/01/20 10:18:46;;;;;;;1.40;0.52;;;25.50;29.00;;;;;;5024657;28;20091;-42
2022/01/20 10:21:13;;;;;;;1.45;0.73;;;25.50;29.00;;;;;;5024195;28;20393;-43
2022/01/20 10:23:41;;;;;;;1.20;0.60;;;25.50;29.00;;;;;;5024513;28;20454;-43
2022/01/20 10:26:15;;;;;;;1.25;0.50;;;25.50;29.20;;;;;;5024349;28;20030;-42
2022/01/20 10:29:14;;;;;;;1.08;0.50;;;25.50;29.30;;;;;;5024166;28;20036;-42
2022/01/20 10:31:52;;;;;;;1.13;0.43;;;25.50;29.30;;;;;;5023809;28;20022;-42
2022/01/20 10:34:32;;;;;;;1.27;0.50;;;25.40;29.90;;;;;;5024087;28;20377;-41
2022/01/20 10:37:02;;;;;;;1.13;0.50;;;25.50;29.40;;;;;;5003909;28;20034;-41
2022/01/20 10:39:47;;;;;;;1.52;0.45;;;25.50;29.30;;;;;;5013909;28;20441;-41
2022/01/20 10:42:16;;;;;;;1.08;0.50;;;25.50;29.30;;;;;;5028499;28;20133;-41
2022/01/20 10:44:49;;;;;;;1.27;0.50;;;25.50;29.10;;;;;;5027407;28;20547;-42
2022/01/20 10:47:29;;;;;;;1.42;0.50;;;25.40;29.20;;;;;;5027244;28;20037;-42
2022/01/20 10:50:07;;;;;;;1.42;0.50;;;25.40;29.20;;;;;;5027627;28;20026;-43
2022/01/20 10:52:36;;;;;;;2.05;0.60;;;25.40;29.20;;;;;;5027576;28;20030;-41
2022/01/20 10:55:03;;;;;;;1.27;0.52;;;25.40;29.20;;;;;;5027461;28;20029;-42
2022/01/20 10:57:34;;;;;;;1.55;0.55;;;25.40;29.10;;;;;;5027412;28;20108;-42
2022/01/20 11:00:06;;;;;;;1.38;0.52;;;25.50;29.30;;;;;;5026973;28;20041;-42
2022/01/20 11:02:33;;;;;;;0.63;0.30;;;25.40;29.10;;;;;;5027110;28;20049;-41
2022/01/20 11:04:59;;;;;;;0.88;0.35;;;25.40;29.20;;;;;;5026970;28;20044;-41
2022/01/20 11:07:26;;;;;;;1.77;0.93;;;25.40;29.10;;;;;;5026935;28;20041;-42
2022/01/20 11:10:00;;;;;;;0.98;0.50;;;25.40;29.10;;;;;;5026063;28;20116;-41
2022/01/20 11:12:27;;;;;;;1.77;0.50;;;25.40;29.20;;;;;;5027044;28;20481;-43
2022/01/20 11:14:53;;;;;;;1.48;0.55;;;25.40;29.10;;;;;;5026286;28;20029;-43
2022/01/20 11:17:24;;;;;;;1.67;0.50;;;25.40;29.20;;;;;;5026774;28;20611;-41
2022/01/20 11:19:51;;;;;;;2.70;0.60;;;25.40;29.20;;;;;;5026404;28;20044;-43
2022/01/20 11:22:19;;;;;;;1.20;0.50;;;25.40;29.20;;;;;;5025083;28;20456;-41
2022/01/20 11:24:57;;;;;;;1.05;0.50;;;25.50;29.20;;;;;;5026476;28;20029;-42
2022/01/20 11:27:37;;;;;;;1.20;0.50;;;25.50;29.20;;;;;;5026491;28;20037;-41
2022/01/20 11:30:26;;;;;;;0.30;0.20;;;25.50;29.10;;;;;;5026745;28;20025;-41
2022/01/20 11:32:59;;;;;;;1.25;0.60;;;25.50;29.10;;;;;;5007353;28;20030;-43
2022/01/20 11:35:56;;;;;;;1.48;0.57;;;25.50;29.00;;;;;;5012437;28;20049;-42
2022/01/20 11:38:36;;;;;;;1.02;0.40;;;25.50;29.10;;;;;;5026791;28;20029;-42
2022/01/20 11:41:03;;;;;;;1.25;0.50;;;25.50;29.20;;;;;;5025062;28;20048;-42
2022/01/20 11:43:42;;;;;;;1.30;0.50;;;25.50;29.20;;;;;;5025221;28;20099;-42
2022/01/20 11:46:27;;;;;;;0.75;0.38;;;25.50;29.20;;;;;;5026130;28;20040;-41
2022/01/20 11:48:53;;;;;;;1.05;0.50;;;25.50;29.10;;;;;;5026565;28;20025;-43
2022/01/20 11:51:20;;;;;;;1.33;0.40;;;25.50;29.00;;;;;;5026015;28;20032;-42
2022/01/20 11:54:01;;;;;;;0.82;0.40;;;25.50;29.30;;;;;;5025936;28;20026;-42
2022/01/20 11:56:40;;;;;;;0.68;0.30;;;25.50;29.10;;;;;;5025943;28;20033;-42
2022/01/20 11:59:09;;;;;;;1.40;0.50;;;25.50;29.10;;;;;;5025949;28;20116;-43
2022/01/20 12:01:53;;;;;;;1.35;0.57;;;25.50;29.00;;;;;;5026372;28;20029;-42
2022/01/20 12:04:38;;;;;;;0.90;0.30;;;25.50;29.80;;;;;;5025702;28;20025;-43
2022/01/20 12:07:06;;;;;;;1.52;0.40;;;25.60;29.10;;;;;;5025230;28;20317;-42
2022/01/20 12:09:35;;;;;;;1.35;0.40;;;25.60;29.30;;;;;;5026064;28;20112;-43
2022/01/20 12:12:02;;;;;;;0.85;0.30;;;25.60;29.20;;;;;;5026094;28;20118;-43
2022/01/20 12:14:36;;;;;;;1.20;0.50;;;25.60;29.20;;;;;;5025616;28;20049;-42
2022/01/20 12:17:11;;;;;;;0.93;0.30;;;25.60;29.20;;;;;;5025404;28;20021;-41
2022/01/20 12:19:37;;;;;;;1.10;0.40;;;25.60;29.00;;;;;;5025361;28;20037;-43
2022/01/20 12:22:05;;;;;;;0.85;0.30;;;25.60;29.10;;;;;;5026020;28;20111;-42
2022/01/20 12:24:32;;;;;;;0.50;0.30;;;25.60;29.10;;;;;;5025648;28;20029;-42
2022/01/20 12:26:58;;;;;;;1.00;0.55;;;25.60;29.10;;;;;;5025221;28;20108;-41
2022/01/20 12:29:37;;;;;;;0.80;0.30;;;25.60;29.10;;;;;;5024144;28;20120;-43
2022/01/20 12:32:14;;;;;;;0.65;0.30;;;25.60;29.00;;;;;;5025523;28;20017;-42
2022/01/20 12:34:40;;;;;;;0.63;0.30;;;25.60;29.00;;;;;;5040531;28;20029;-41
2022/01/20 12:37:06;;;;;;;2.08;0.45;;;25.60;29.00;;;;;;5025225;28;20044;-40
2022/01/20 12:39:35;;;;;;;0.55;0.30;;;25.60;29.00;;;;;;5022243;28;20030;-43
2022/01/20 12:42:07;;;;;;;1.23;0.50;;;25.60;28.90;;;;;;5012601;28;20037;-41
2022/01/20 12:44:41;;;;;;;0.97;0.30;;;25.60;28.90;;;;;;5040561;28;20040;-41
2022/01/20 12:47:08;;;;;;;1.13;0.35;;;25.60;28.90;;;;;;5007981;28;20063;-43
2022/01/20 12:49:34;;;;;;;0.90;0.30;;;25.60;28.90;;;;;;5005298;28;20096;-43
2022/01/20 12:52:04;;;;;;;0.55;0.40;;;25.60;28.90;;;;;;5024064;28;20190;-42
2022/01/20 12:54:33;;;;;;;1.33;0.60;;;25.60;28.90;;;;;;5023524;28;20033;-42
2022/01/20 12:57:04;;;;;;;0.50;0.22;;;25.50;28.70;;;;;;5023036;28;20022;-42
2022/01/20 12:59:32;;;;;;;0.98;0.40;;;25.50;28.90;;;;;;5023864;28;20064;-42
2022/01/20 13:02:01;;;;;;;0.82;0.40;;;25.50;28.80;;;;;;5024758;28;20021;-42
2022/01/20 13:04:29;;;;;;;0.65;0.30;;;25.50;28.90;;;;;;5023990;28;20040;-43
2022/01/20 13:07:00;;;;;;;0.98;0.40;;;25.50;28.90;;;;;;5023974;28;20513;-42
2022/01/20 13:09:48;;;;;;;0.90;0.32;;;25.50;28.90;;;;;;5024676;28;20076;-41
2022/01/20 13:12:17;;;;;;;0.82;0.30;;;25.50;28.80;;;;;;5024549;28;20404;-42
2022/01/20 13:14:48;;;;;;;0.95;0.40;;;25.50;28.80;;;;;;5023491;28;20079;-43
2022/01/20 13:17:24;;;;;;;0.93;0.40;;;25.50;28.90;;;;;;5024405;28;20036;-43
2022/01/20 13:19:52;;;;;;;1.00;0.40;;;25.50;28.80;;;;;;5024732;28;20132;-40
2022/01/20 13:22:41;;;;;;;1.45;0.40;;;25.50;28.90;;;;;;5025050;28;20040;-41
2022/01/20 13:25:11;;;;;;;0.95;0.30;;;25.50;29.00;;;;;;5026894;28;20584;-41
2022/01/20 13:27:48;;;;;;;0.85;0.30;;;25.50;29.00;;;;;;5023043;28;20087;-41
2022/01/20 13:30:28;;;;;;;0.77;0.30;;;25.50;29.00;;;;;;5024423;28;20445;-41
2022/01/20 13:32:55;;;;;;;0.40;0.30;;;25.50;29.00;;;;;;5005137;28;20077;-43
2022/01/20 13:35:21;;;;;;;1.10;0.30;;;25.50;29.00;;;;;;5017479;28;20180;-43
2022/01/20 13:37:58;;;;;;;0.55;0.25;;;25.50;29.00;;;;;;5023202;28;20622;-42
2022/01/20 13:40:24;;;;;;;0.75;0.20;;;25.50;29.00;;;;;;5024644;28;20034;-41
2022/01/20 13:45:44;;;;;;;1.05;0.40;;;25.50;29.00;;;;;;5024636;28;20056;-43
2022/01/20 13:48:12;;;;;;;1.35;0.68;;;25.50;29.00;;;;;;5024641;28;20447;-42
2022/01/20 13:50:43;;;;;;;1.27;0.40;;;25.50;29.00;;;;;;5023098;28;20021;-41
2022/01/20 13:53:15;;;;;;;1.55;0.40;;;25.50;29.00;;;;;;5023817;28;20025;-42
2022/01/20 13:55:43;;;;;;;1.50;0.40;;;25.50;29.00;;;;;;5023823;28;20074;-40
2022/01/20 13:58:21;;;;;;;1.45;0.30;;;25.50;28.90;;;;;;5024520;28;20018;-42
2022/01/20 14:00:46;;;;;;;0.85;0.40;;;25.50;29.00;;;;;;5024894;28;20030;-41
2022/01/20 14:03:12;;;;;;;1.58;0.65;;;25.50;28.90;;;;;;5022775;28;20040;-42
2022/01/20 14:05:38;;;;;;;1.70;0.20;;;25.50;29.00;;;;;;5024257;28;20022;-43
2022/01/20 14:08:04;;;;;;;0.65;0.25;;;25.50;29.10;;;;;;5023039;28;20029;-41
2022/01/20 14:10:31;;;;;;;0.70;0.30;;;25.50;29.00;;;;;;5024476;28;20114;-43